createdAt,value
2019-05-19T00:00:47.342Z,88.45
2019-05-19T00:03:15.767Z,88.50
2019-05-19T00:05:44.196Z,89.43
2019-05-19T00:08:13.476Z,90.06
2019-05-19T00:10:41.899Z,90.52
2019-05-19T00:13:10.304Z,90.59
2019-05-19T00:15:38.755Z,90.78
2019-05-19T00:18:07.214Z,91.18
2019-05-19T00:20:35.579Z,91.46
2019-05-19T00:23:03.989Z,90.95
2019-05-19T00:25:33.266Z,90.78
2019-05-19T00:28:01.746Z,90.95
2019-05-19T00:30:30.169Z,90.99
2019-05-19T00:32:58.586Z,91.41
2019-05-19T00:35:27.041Z,91.70
2019-05-19T00:37:55.447Z,92.20
2019-05-19T00:40:23.906Z,92.20
2019-05-19T00:42:52.322Z,92.33
2019-05-19T00:45:21.595Z,92.55
2019-05-19T00:47:50.003Z,92.53
2019-05-19T00:50:18.429Z,92.59
2019-05-19T00:52:46.872Z,92.86
2019-05-19T00:55:15.277Z,93.12
2019-05-19T00:57:43.963Z,93.20
2019-05-19T01:00:13.601Z,93.00
2019-05-19T01:02:42.778Z,93.11
2019-05-19T01:05:11.636Z,93.51
2019-05-19T01:07:40.076Z,93.74
2019-05-19T01:10:08.918Z,94.06
2019-05-19T01:12:37.343Z,94.11
2019-05-19T01:15:07.769Z,94.26
2019-05-19T01:17:36.195Z,93.95
2019-05-19T01:20:06.447Z,93.49
2019-05-19T01:22:34.886Z,93.09
2019-05-19T01:25:03.774Z,93.00
2019-05-19T01:27:32.214Z,92.91
2019-05-19T01:30:00.649Z,93.03
2019-05-19T01:32:29.158Z,93.41
2019-05-19T01:34:57.580Z,93.71
2019-05-19T01:37:26.029Z,93.71
2019-05-19T01:39:54.423Z,94.13
2019-05-19T01:42:22.856Z,94.04
2019-05-19T01:44:51.260Z,94.27
2019-05-19T01:47:19.758Z,94.38
2019-05-19T01:49:48.180Z,94.65
2019-05-19T01:52:16.614Z,94.75
2019-05-19T01:54:45.089Z,94.79
2019-05-19T01:57:13.512Z,94.68
2019-05-19T01:59:41.928Z,94.55
2019-05-19T02:02:10.356Z,94.70
2019-05-19T02:04:38.777Z,94.50
2019-05-19T02:07:07.203Z,94.70
2019-05-19T02:09:35.655Z,94.96
2019-05-19T02:12:04.066Z,95.15
2019-05-19T02:14:32.476Z,95.31
2019-05-19T02:17:00.904Z,95.09
2019-05-19T02:19:29.338Z,94.80
2019-05-19T02:21:57.757Z,94.82
2019-05-19T02:24:26.218Z,95.18
2019-05-19T02:26:54.647Z,95.28
2019-05-19T02:29:23.083Z,95.40
2019-05-19T02:31:51.509Z,95.29
2019-05-19T02:34:19.941Z,95.28
2019-05-19T02:36:48.427Z,95.39
2019-05-19T02:39:16.781Z,95.55
2019-05-19T02:41:48.245Z,95.48
2019-05-19T02:44:20.081Z,95.30
2019-05-19T02:46:50.691Z,95.11
2019-05-19T02:49:20.445Z,95.11
2019-05-19T02:51:51.681Z,95.22
2019-05-19T02:54:20.836Z,95.20
2019-05-19T02:56:50.898Z,95.56
2019-05-19T02:59:21.261Z,95.65
2019-05-19T03:02:03.365Z,95.75
2019-05-19T03:04:31.853Z,95.58
2019-05-19T03:07:00.283Z,95.54
2019-05-19T03:09:28.732Z,95.63
2019-05-19T03:11:57.154Z,95.63
2019-05-19T03:14:25.558Z,95.83
2019-05-19T03:16:53.992Z,95.81
2019-05-19T03:19:22.583Z,95.87
2019-05-19T03:21:51.027Z,95.73
2019-05-19T03:24:19.442Z,95.56
2019-05-19T03:26:48.224Z,95.73
2019-05-19T03:29:18.282Z,96.03
2019-05-19T03:31:48.698Z,95.94
2019-05-19T03:34:17.798Z,95.87
2019-05-19T03:36:46.196Z,95.50
2019-05-19T03:39:14.623Z,95.49
2019-05-19T03:41:43.045Z,95.77
2019-05-19T03:44:11.485Z,95.62
2019-05-19T03:46:40.155Z,95.37
2019-05-19T03:49:08.544Z,95.44
2019-05-19T03:51:36.954Z,95.33
2019-05-19T03:54:05.393Z,95.37
2019-05-19T03:56:33.812Z,95.38
2019-05-19T03:59:02.243Z,95.49
2019-05-19T04:01:30.647Z,95.26
2019-05-19T04:03:59.083Z,95.08
2019-05-19T04:06:27.497Z,94.89
2019-05-19T04:08:55.939Z,95.01
2019-05-19T04:11:24.334Z,95.03
2019-05-19T04:13:52.764Z,94.84
2019-05-19T04:16:21.171Z,94.58
2019-05-19T04:18:49.603Z,94.54
2019-05-19T04:21:18.022Z,94.60
2019-05-19T04:23:46.495Z,94.38
2019-05-19T04:26:14.906Z,94.23
2019-05-19T04:28:43.332Z,94.04
2019-05-19T04:31:11.755Z,93.70
2019-05-19T04:33:40.184Z,93.72
2019-05-19T04:36:08.599Z,93.66
2019-05-19T04:38:37.031Z,93.33
2019-05-19T04:41:05.431Z,92.74
2019-05-19T04:43:33.864Z,92.71
2019-05-19T04:46:02.273Z,92.98
2019-05-19T04:48:30.700Z,92.87
2019-05-19T04:50:59.111Z,92.67
2019-05-19T04:53:27.531Z,92.53
2019-05-19T04:55:55.934Z,92.04
2019-05-19T04:58:24.370Z,91.98
2019-05-19T05:00:52.767Z,91.55
2019-05-19T05:03:21.195Z,91.05
2019-05-19T05:05:49.615Z,90.88
2019-05-19T05:08:29.511Z,90.74
2019-05-19T05:10:48.216Z,90.37
2019-05-19T05:13:16.640Z,89.93
2019-05-19T05:15:45.062Z,89.47
2019-05-19T05:18:13.504Z,88.88
2019-05-19T05:20:41.909Z,88.98
2019-05-19T05:23:10.397Z,89.03
2019-05-19T05:25:38.820Z,88.04
2019-05-19T05:28:07.259Z,87.60
2019-05-19T05:30:35.651Z,86.96
2019-05-19T05:33:04.079Z,87.78
2019-05-19T05:35:32.492Z,87.37
2019-05-19T05:38:00.920Z,87.40
2019-05-19T05:40:29.335Z,85.80
2019-05-19T05:42:57.757Z,84.29
2019-05-19T05:45:26.173Z,83.64
2019-05-19T05:47:54.580Z,82.98
2019-05-19T05:50:23.008Z,82.76
2019-05-19T05:52:51.426Z,82.39
2019-05-19T05:55:19.838Z,82.28
2019-05-19T05:57:48.254Z,82.61
2019-05-19T06:00:16.878Z,82.75
2019-05-19T06:02:45.284Z,82.70
2019-05-19T06:05:13.771Z,82.66
2019-05-19T06:07:42.184Z,82.59
2019-05-19T06:10:10.797Z,82.58
2019-05-19T06:12:39.162Z,82.39
2019-05-19T06:15:07.727Z,81.90
2019-05-19T06:17:36.147Z,81.16
2019-05-19T06:20:06.997Z,80.27
2019-05-19T06:22:35.756Z,80.22
2019-05-19T06:25:04.852Z,79.86
2019-05-19T06:27:33.266Z,79.47
2019-05-19T06:30:01.692Z,79.15
2019-05-19T06:32:31.758Z,78.78
2019-05-19T06:35:00.185Z,78.83
2019-05-19T06:37:28.604Z,77.93
2019-05-19T06:39:57.031Z,76.53
2019-05-19T06:42:25.459Z,76.85
2019-05-19T06:44:53.884Z,77.29
2019-05-19T06:47:22.309Z,76.22
2019-05-19T06:49:50.751Z,75.72
2019-05-19T06:52:19.173Z,75.83
2019-05-19T06:54:47.599Z,76.80
2019-05-19T06:57:16.043Z,76.13
2019-05-19T06:59:44.578Z,77.89
2019-05-19T07:02:13.014Z,77.93
2019-05-19T07:04:41.449Z,78.16
2019-05-19T07:07:09.891Z,79.27
2019-05-19T07:09:38.309Z,76.62
2019-05-19T07:12:06.750Z,77.34
2019-05-19T07:14:35.177Z,76.77
2019-05-19T07:17:03.601Z,77.44
2019-05-19T07:19:32.029Z,77.13
2019-05-19T07:22:00.446Z,76.50
2019-05-19T07:24:28.871Z,75.79
2019-05-19T07:26:57.293Z,74.78
2019-05-19T07:29:25.740Z,74.55
2019-05-19T07:31:54.141Z,74.03
2019-05-19T07:34:22.571Z,73.64
2019-05-19T07:36:50.991Z,73.19
2019-05-19T07:39:19.422Z,74.43
2019-05-19T07:41:47.851Z,73.73
2019-05-19T07:44:16.287Z,72.35
2019-05-19T07:46:44.717Z,72.28
2019-05-19T07:49:13.157Z,70.25
2019-05-19T07:51:41.569Z,68.96
2019-05-19T07:54:10.005Z,69.40
2019-05-19T07:56:38.415Z,67.65
2019-05-19T07:59:08.002Z,67.93
2019-05-19T08:01:36.547Z,65.69
2019-05-19T08:04:04.985Z,66.95
2019-05-19T08:06:33.425Z,65.85
2019-05-19T08:09:01.847Z,64.47
2019-05-19T08:11:30.278Z,65.17
2019-05-19T08:13:58.696Z,64.51
2019-05-19T08:16:27.147Z,64.65
2019-05-19T08:18:55.568Z,63.91
2019-05-19T08:21:24.010Z,63.57
2019-05-19T08:24:00.602Z,63.03
2019-05-19T08:26:22.659Z,64.64
2019-05-19T08:28:51.079Z,63.59
2019-05-19T08:31:19.516Z,62.49
2019-05-19T08:33:47.974Z,61.41
2019-05-19T08:36:16.431Z,60.06
2019-05-19T08:38:44.861Z,60.18
2019-05-19T08:41:13.295Z,57.20
2019-05-19T08:43:41.712Z,57.09
2019-05-19T08:46:10.145Z,58.45
2019-05-19T08:48:38.570Z,57.61
2019-05-19T08:51:07.044Z,57.46
2019-05-19T08:53:35.463Z,55.67
2019-05-19T08:56:03.897Z,55.84
2019-05-19T08:58:32.311Z,56.10
2019-05-19T09:01:00.744Z,55.53
2019-05-19T09:03:29.167Z,56.63
2019-05-19T09:05:57.602Z,55.79
2019-05-19T09:08:26.025Z,55.69
2019-05-19T09:10:54.452Z,55.02
2019-05-19T09:13:22.870Z,53.89
2019-05-19T09:15:51.309Z,53.50
2019-05-19T09:18:19.721Z,53.62
2019-05-19T09:20:48.159Z,54.40
2019-05-19T09:23:16.582Z,54.24
2019-05-19T09:25:45.031Z,53.98
2019-05-19T09:28:13.479Z,53.71
2019-05-19T09:30:41.915Z,53.82
2019-05-19T09:33:10.343Z,53.42
2019-05-19T09:35:38.771Z,53.97
2019-05-19T09:38:07.193Z,53.21
2019-05-19T09:40:35.631Z,53.35
2019-05-19T09:43:04.202Z,50.42
2019-05-19T09:45:32.649Z,53.70
2019-05-19T09:48:01.067Z,52.36
2019-05-19T09:50:29.503Z,52.17
2019-05-19T09:52:57.919Z,53.34
2019-05-19T09:55:26.384Z,53.81
2019-05-19T09:57:54.801Z,53.52
2019-05-19T10:00:23.224Z,52.73
2019-05-19T10:02:51.725Z,51.76
2019-05-19T10:05:20.171Z,53.32
2019-05-19T10:07:48.568Z,53.16
2019-05-19T10:10:20.698Z,53.25
2019-05-19T10:12:49.154Z,52.91
2019-05-19T10:15:17.720Z,52.32
2019-05-19T10:17:46.161Z,52.60
2019-05-19T10:20:15.125Z,52.60
2019-05-19T10:22:43.559Z,51.64
2019-05-19T10:25:23.111Z,54.13
2019-05-19T10:27:44.671Z,53.07
2019-05-19T10:30:14.830Z,50.65
2019-05-19T10:32:43.276Z,52.26
2019-05-19T10:35:15.314Z,54.16
2019-05-19T10:37:43.815Z,52.21
2019-05-19T10:40:12.371Z,50.53
2019-05-19T10:42:40.804Z,50.53
2019-05-19T10:45:09.868Z,50.91
2019-05-19T10:47:38.322Z,49.82
2019-05-19T10:50:07.194Z,48.70
2019-05-19T10:52:35.631Z,49.52
2019-05-19T10:55:05.794Z,48.74
2019-05-19T10:57:34.218Z,47.29
2019-05-19T11:00:02.639Z,49.98
2019-05-19T11:02:31.070Z,49.34
2019-05-19T11:04:59.510Z,50.17
2019-05-19T11:07:27.967Z,49.44
2019-05-19T11:09:56.387Z,49.44
2019-05-19T11:12:24.822Z,48.51
2019-05-19T11:14:53.238Z,49.03
2019-05-19T11:17:21.666Z,49.53
2019-05-19T11:19:50.089Z,50.46
2019-05-19T11:22:18.517Z,50.97
2019-05-19T11:24:46.932Z,49.19
2019-05-19T11:27:15.363Z,48.73
2019-05-19T11:29:43.785Z,48.17
2019-05-19T11:32:12.213Z,48.55
2019-05-19T11:34:40.622Z,49.36
2019-05-19T11:37:09.085Z,47.55
2019-05-19T11:39:37.520Z,50.54
2019-05-19T11:42:05.947Z,49.69
2019-05-19T11:44:34.413Z,48.53
2019-05-19T11:47:02.876Z,45.66
2019-05-19T11:49:31.308Z,45.02
2019-05-19T11:51:59.744Z,43.51
2019-05-19T11:54:28.159Z,45.64
2019-05-19T11:56:56.592Z,46.54
2019-05-19T11:59:25.028Z,46.30
2019-05-19T12:01:53.464Z,45.69
2019-05-19T12:04:21.881Z,46.37
2019-05-19T12:06:50.302Z,45.59
2019-05-19T12:09:18.732Z,43.01
2019-05-19T12:11:47.160Z,44.14
2019-05-19T12:14:15.587Z,43.73
2019-05-19T12:16:44.013Z,44.24
2019-05-19T12:19:12.442Z,43.49
2019-05-19T12:21:40.859Z,44.79
2019-05-19T12:24:09.287Z,44.84
2019-05-19T12:26:37.708Z,43.54
2019-05-19T12:29:06.143Z,43.38
2019-05-19T12:31:34.564Z,43.10
2019-05-19T12:34:02.994Z,43.18
2019-05-19T12:36:31.479Z,40.37
2019-05-19T12:38:59.912Z,43.92
2019-05-19T12:41:28.341Z,43.87
2019-05-19T12:43:56.776Z,42.62
2019-05-19T12:46:25.205Z,43.56
2019-05-19T12:48:53.666Z,44.34
2019-05-19T12:51:22.078Z,43.07
2019-05-19T12:53:50.514Z,42.62
2019-05-19T12:56:18.941Z,41.25
2019-05-19T12:58:47.383Z,41.90
2019-05-19T13:01:15.798Z,42.17
2019-05-19T13:03:44.235Z,41.62
2019-05-19T13:06:12.718Z,41.18
2019-05-19T13:08:41.150Z,41.00
2019-05-19T13:11:09.570Z,39.90
2019-05-19T13:13:38.052Z,40.67
2019-05-19T13:16:06.439Z,40.45
2019-05-19T13:18:34.868Z,39.34
2019-05-19T13:24:01.175Z,39.77
2019-05-19T13:26:29.596Z,39.14
2019-05-19T13:28:58.026Z,39.21
2019-05-19T13:31:26.442Z,37.60
2019-05-19T13:33:54.882Z,37.99
2019-05-19T13:36:23.308Z,38.32
2019-05-19T13:38:51.771Z,38.25
2019-05-19T13:41:20.189Z,38.24
2019-05-19T13:43:48.631Z,37.97
2019-05-19T13:46:17.047Z,36.78
2019-05-19T13:48:45.486Z,38.61
2019-05-19T13:51:13.910Z,36.27
2019-05-19T13:56:53.866Z,35.62
2019-05-19T13:59:22.298Z,35.31
2019-05-19T14:01:50.708Z,35.05
2019-05-19T14:04:19.200Z,33.94
2019-05-19T14:06:47.619Z,35.12
2019-05-19T14:09:16.051Z,34.97
2019-05-19T14:11:44.451Z,35.24
2019-05-19T14:14:12.886Z,34.78
2019-05-19T14:16:41.304Z,33.20
2019-05-19T14:19:09.723Z,35.24
2019-05-19T14:21:38.275Z,34.24
2019-05-19T14:24:06.691Z,35.53
2019-05-19T14:26:35.111Z,34.29
2019-05-19T14:29:03.543Z,34.97
2019-05-19T14:31:31.985Z,34.40
2019-05-19T14:34:00.395Z,35.53
2019-05-19T14:36:28.811Z,36.06
2019-05-19T14:39:05.063Z,35.31
2019-05-19T14:41:33.954Z,37.04
2019-05-19T14:44:02.714Z,37.00
2019-05-19T14:46:31.146Z,36.72
2019-05-19T14:48:59.578Z,34.85
2019-05-19T14:51:28.046Z,36.03
2019-05-19T14:53:56.506Z,32.14
2019-05-19T14:56:24.914Z,33.59
2019-05-19T14:58:53.348Z,33.04
2019-05-19T15:01:21.769Z,33.17
2019-05-19T15:03:50.191Z,35.25
2019-05-19T15:06:18.604Z,33.79
2019-05-19T15:08:47.031Z,35.46
2019-05-19T15:11:15.463Z,34.98
2019-05-19T15:13:43.935Z,34.51
2019-05-19T15:16:12.342Z,36.53
2019-05-19T15:18:40.794Z,34.47
2019-05-19T15:21:09.211Z,33.99
2019-05-19T15:23:37.663Z,35.06
2019-05-19T15:26:06.064Z,35.65
2019-05-19T15:28:34.477Z,36.78
2019-05-19T15:31:02.907Z,37.50
2019-05-19T15:33:37.808Z,37.71
2019-05-19T15:36:01.507Z,38.89
2019-05-19T15:38:29.924Z,38.59
2019-05-19T15:40:58.401Z,39.38
2019-05-19T15:43:26.854Z,37.97
2019-05-19T15:45:55.277Z,41.27
2019-05-19T15:48:23.709Z,38.93
2019-05-19T15:50:52.151Z,39.44
2019-05-19T15:53:20.582Z,39.65
2019-05-19T15:55:49.009Z,39.29
2019-05-19T15:58:17.463Z,40.40
2019-05-19T16:00:45.844Z,40.02
2019-05-19T16:03:14.259Z,40.08
2019-05-19T16:05:42.699Z,38.71
2019-05-19T16:08:11.100Z,39.05
2019-05-19T16:10:39.897Z,39.20
2019-05-19T16:13:08.304Z,36.85
2019-05-19T16:15:36.730Z,36.96
2019-05-19T16:18:05.145Z,38.19
2019-05-19T16:20:33.567Z,37.24
2019-05-19T16:23:01.982Z,37.87
2019-05-19T16:25:30.426Z,37.90
2019-05-19T16:27:59.105Z,37.18
2019-05-19T16:30:27.526Z,37.75
2019-05-19T16:32:55.964Z,37.85
2019-05-19T16:35:24.401Z,37.00
2019-05-19T16:37:52.812Z,39.30
2019-05-19T16:40:21.255Z,39.17
2019-05-19T16:42:49.655Z,40.02
2019-05-19T16:45:18.720Z,40.28
2019-05-19T16:47:47.128Z,38.22
2019-05-19T16:50:15.814Z,38.91
2019-05-19T16:52:44.224Z,38.68
2019-05-19T16:55:17.387Z,37.12
2019-05-19T16:57:45.810Z,36.84
2019-05-19T17:00:14.522Z,36.78
2019-05-19T17:02:42.976Z,37.05
2019-05-19T17:05:11.650Z,36.87
2019-05-19T17:07:40.061Z,35.84
2019-05-19T17:10:12.014Z,37.18
2019-05-19T17:12:40.482Z,37.15
2019-05-19T17:15:08.883Z,38.18
2019-05-19T17:17:37.368Z,37.33
2019-05-19T17:20:09.677Z,37.83
2019-05-19T17:22:38.085Z,37.01
2019-05-19T17:25:07.277Z,38.75
2019-05-19T17:27:35.679Z,36.83
2019-05-19T17:30:06.948Z,36.00
2019-05-19T17:32:35.370Z,35.67
2019-05-19T17:35:07.638Z,35.62
2019-05-19T17:37:36.047Z,37.08
2019-05-19T17:40:05.464Z,36.98
2019-05-19T17:42:37.060Z,36.57
2019-05-19T17:45:05.850Z,34.32
2019-05-19T17:47:34.349Z,35.88
2019-05-19T17:50:02.754Z,36.53
2019-05-19T17:52:31.745Z,36.91
2019-05-19T17:55:00.225Z,36.11
2019-05-19T17:57:29.230Z,38.25
2019-05-19T17:59:58.283Z,38.69
2019-05-19T18:02:26.709Z,39.56
2019-05-19T18:04:55.132Z,40.49
2019-05-19T18:07:23.559Z,41.41
2019-05-19T18:09:51.980Z,41.94
2019-05-19T18:12:20.404Z,44.22
2019-05-19T18:14:48.831Z,44.40
2019-05-19T18:17:17.250Z,44.44
2019-05-19T18:19:45.663Z,45.26
2019-05-19T18:22:14.093Z,44.84
2019-05-19T18:24:42.503Z,42.74
2019-05-19T18:27:10.929Z,44.73
2019-05-19T18:29:39.343Z,44.40
2019-05-19T18:32:07.759Z,43.14
2019-05-19T18:34:36.180Z,44.15
2019-05-19T18:37:04.619Z,43.87
2019-05-19T18:39:33.026Z,45.65
2019-05-19T18:42:01.448Z,45.85
2019-05-19T18:44:29.859Z,45.96
2019-05-19T18:46:58.309Z,47.16
2019-05-19T18:49:26.729Z,48.61
2019-05-19T18:51:55.169Z,49.35
2019-05-19T18:54:23.578Z,50.92
2019-05-19T18:56:52.006Z,52.20
2019-05-19T18:59:20.417Z,53.49
2019-05-19T19:01:48.850Z,53.29
2019-05-19T19:04:17.266Z,53.84
2019-05-19T19:06:45.705Z,53.99
2019-05-19T19:09:14.111Z,55.18
2019-05-19T19:11:42.548Z,55.57
2019-05-19T19:14:10.965Z,55.03
2019-05-19T19:16:39.388Z,55.79
2019-05-19T19:19:07.814Z,57.29
2019-05-19T19:21:36.236Z,57.40
2019-05-19T19:24:04.650Z,56.95
2019-05-19T19:26:33.073Z,58.76
2019-05-19T19:29:01.483Z,59.16
2019-05-19T19:31:29.910Z,58.70
2019-05-19T19:33:58.342Z,59.54
2019-05-19T19:36:26.773Z,59.49
2019-05-19T19:38:55.190Z,59.79
2019-05-19T19:41:23.625Z,60.25
2019-05-19T19:43:52.037Z,60.31
2019-05-19T19:46:20.452Z,60.77
2019-05-19T19:48:48.897Z,61.26
2019-05-19T19:51:17.304Z,60.84
2019-05-19T19:53:45.736Z,60.62
2019-05-19T19:56:14.159Z,61.37
2019-05-19T19:58:42.597Z,61.27
2019-05-19T20:01:11.034Z,61.74
2019-05-19T20:03:40.572Z,61.24
2019-05-19T20:06:09.105Z,61.46
2019-05-19T20:08:37.543Z,61.38
2019-05-19T20:11:05.934Z,62.25
2019-05-19T20:13:34.374Z,62.25
2019-05-19T20:16:02.783Z,62.73
2019-05-19T20:18:31.219Z,62.91
2019-05-19T20:20:59.632Z,63.06
2019-05-19T20:23:28.053Z,63.74
2019-05-19T20:25:56.468Z,64.14
2019-05-19T20:28:24.905Z,64.45
2019-05-19T20:30:53.307Z,64.62
2019-05-19T20:33:21.748Z,64.90
2019-05-19T20:35:50.171Z,65.69
2019-05-19T20:38:18.624Z,65.65
2019-05-19T20:40:47.036Z,65.53
2019-05-19T20:43:15.458Z,66.57
2019-05-19T20:45:43.870Z,66.31
2019-05-19T20:48:12.293Z,66.37
2019-05-19T20:50:40.765Z,66.97
2019-05-19T20:53:09.525Z,67.71
2019-05-19T20:55:37.946Z,67.50
2019-05-19T20:58:06.379Z,68.37
2019-05-19T21:00:48.090Z,68.33
2019-05-19T21:03:04.947Z,68.55
2019-05-19T21:05:33.361Z,68.88
2019-05-19T21:08:01.789Z,69.15
2019-05-19T21:10:30.267Z,69.33
2019-05-19T21:12:58.685Z,69.62
2019-05-19T21:15:27.092Z,69.61
2019-05-19T21:17:55.516Z,69.99
2019-05-19T21:20:23.926Z,70.48
2019-05-19T21:22:52.354Z,70.57
2019-05-19T21:25:20.772Z,70.20
2019-05-19T21:27:49.195Z,70.32
2019-05-19T21:30:17.623Z,70.74
2019-05-19T21:32:46.052Z,71.30
2019-05-19T21:35:14.472Z,71.38
2019-05-19T21:37:42.898Z,71.11
2019-05-19T21:40:11.307Z,71.63
2019-05-19T21:42:39.723Z,72.08
2019-05-19T21:45:09.292Z,72.44
2019-05-19T21:47:37.712Z,72.46
2019-05-19T21:50:07.749Z,72.92
2019-05-19T21:52:36.162Z,73.13
2019-05-19T21:55:06.522Z,73.01
2019-05-19T21:57:34.934Z,73.16
2019-05-19T22:00:04.208Z,73.36
2019-05-19T22:02:32.622Z,73.10
2019-05-19T22:05:01.651Z,73.14
2019-05-19T22:07:37.596Z,73.43
2019-05-19T22:10:06.970Z,73.87
2019-05-19T22:12:35.390Z,74.37
2019-05-19T22:15:04.590Z,74.92
2019-05-19T22:17:32.997Z,75.04
2019-05-19T22:20:01.428Z,75.26
2019-05-19T22:22:29.855Z,75.71
2019-05-19T22:24:58.285Z,76.11
2019-05-19T22:27:26.706Z,75.80
2019-05-19T22:29:55.130Z,75.95
2019-05-19T22:32:23.531Z,76.17
2019-05-19T22:34:51.960Z,76.22
2019-05-19T22:37:20.370Z,76.35
2019-05-19T22:39:48.793Z,76.42
2019-05-19T22:42:17.216Z,77.02
2019-05-19T22:44:45.641Z,77.44
2019-05-19T22:47:14.065Z,78.18
2019-05-19T22:49:42.481Z,77.60
2019-05-19T22:52:10.909Z,77.19
2019-05-19T22:54:39.331Z,77.15
2019-05-19T22:57:07.809Z,77.50
2019-05-19T22:59:36.242Z,77.93
2019-05-19T23:02:04.691Z,77.86
2019-05-19T23:04:33.096Z,77.83
2019-05-19T23:07:01.520Z,77.89
2019-05-19T23:09:29.950Z,78.37
2019-05-19T23:11:58.372Z,78.85
2019-05-19T23:14:26.800Z,78.94
2019-05-19T23:16:55.214Z,79.07
2019-05-19T23:19:23.645Z,79.18
2019-05-19T23:21:52.060Z,79.84
2019-05-19T23:24:20.484Z,79.55
2019-05-19T23:26:48.897Z,79.90
2019-05-19T23:29:17.342Z,79.96
2019-05-19T23:31:45.758Z,79.92
2019-05-19T23:34:14.191Z,80.43
2019-05-19T23:36:42.603Z,80.81
2019-05-19T23:39:11.041Z,81.00
2019-05-19T23:41:39.454Z,81.45
2019-05-19T23:44:07.879Z,81.07
2019-05-19T23:46:36.318Z,81.23
2019-05-19T23:49:04.748Z,81.76
2019-05-19T23:51:33.179Z,82.23
2019-05-19T23:54:01.598Z,81.62
2019-05-19T23:56:30.041Z,82.21
2019-05-19T23:58:58.449Z,82.46
